createdAt,value
2023-01-09T00:03:48.363Z,96.39
2023-01-09T00:07:54.251Z,96.38
2023-01-09T00:12:08.142Z,96.34
2023-01-09T00:16:20.399Z,96.65
2023-01-09T00:20:32.312Z,96.73
2023-01-09T00:24:43.148Z,96.60
2023-01-09T00:28:50.378Z,96.84
2023-01-09T00:32:58.926Z,96.94
2023-01-09T00:37:04.870Z,96.71
2023-01-09T00:41:14.640Z,97.23
2023-01-09T00:45:24.464Z,97.31
2023-01-09T00:49:35.696Z,97.93
2023-01-09T00:53:45.994Z,97.46
2023-01-09T00:57:50.471Z,97.98
2023-01-09T01:01:54.362Z,97.64
2023-01-09T01:06:16.938Z,97.61
2023-01-09T01:10:23.981Z,97.19
2023-01-09T01:14:29.242Z,97.38
2023-01-09T01:18:36.569Z,96.62
2023-01-09T01:22:42.874Z,96.77
2023-01-09T01:26:47.131Z,96.75
2023-01-09T01:30:50.916Z,96.70
2023-01-09T01:34:54.959Z,97.44
2023-01-09T01:39:03.260Z,95.89
2023-01-09T01:43:08.389Z,95.47
2023-01-09T01:47:13.324Z,95.60
2023-01-09T01:51:19.013Z,95.62
2023-01-09T01:55:28.818Z,94.87
2023-01-09T02:00:03.249Z,95.01
2023-01-09T02:04:08.314Z,94.14
2023-01-09T02:08:15.117Z,93.35
2023-01-09T02:12:27.196Z,93.61
2023-01-09T02:16:49.194Z,93.95
2023-01-09T02:21:02.540Z,94.30
2023-01-09T02:25:33.119Z,93.95
2023-01-09T02:30:40.431Z,93.51
2023-01-09T02:35:13.587Z,93.73
2023-01-09T02:39:35.709Z,93.59
2023-01-09T02:43:44.763Z,93.45
2023-01-09T02:47:50.391Z,93.07
2023-01-09T02:51:58.487Z,93.07
2023-01-09T02:56:18.382Z,93.06
2023-01-09T03:00:33.575Z,93.48
2023-01-09T03:04:46.349Z,92.10
2023-01-09T03:08:57.432Z,92.61
2023-01-09T03:13:03.352Z,93.19
2023-01-09T03:17:15.732Z,93.51
2023-01-09T03:21:31.061Z,92.75
2023-01-09T03:25:36.917Z,93.75
2023-01-09T03:29:40.488Z,93.05
2023-01-09T03:33:44.977Z,93.59
2023-01-09T03:37:48.176Z,93.05
2023-01-09T03:41:53.706Z,91.75
2023-01-09T03:45:58.014Z,92.59
2023-01-09T03:50:07.800Z,92.77
2023-01-09T03:54:16.023Z,93.25
2023-01-09T03:58:24.484Z,91.87
2023-01-09T04:02:28.788Z,92.93
2023-01-09T04:06:37.241Z,93.11
2023-01-09T04:10:44.677Z,92.42
2023-01-09T04:14:50.519Z,93.31
2023-01-09T04:18:57.986Z,92.65
2023-01-09T04:23:05.093Z,93.34
2023-01-09T04:27:13.103Z,92.52
2023-01-09T04:31:17.262Z,92.91
2023-01-09T04:35:20.561Z,92.13
2023-01-09T04:39:23.405Z,92.53
2023-01-09T04:43:26.104Z,91.81
2023-01-09T04:47:31.092Z,93.48
2023-01-09T04:51:33.803Z,93.68
2023-01-09T04:55:37.297Z,93.99
2023-01-09T04:59:39.980Z,93.97
2023-01-09T05:03:47.066Z,93.36
2023-01-09T05:07:50.220Z,94.24
2023-01-09T05:11:54.340Z,94.65
2023-01-09T05:15:57.086Z,95.44
2023-01-09T05:20:01.611Z,95.40
2023-01-09T05:24:04.526Z,94.86
2023-01-09T05:28:09.911Z,95.06
2023-01-09T05:32:12.587Z,94.61
2023-01-09T05:36:18.529Z,95.13
2023-01-09T05:40:26.703Z,94.91
2023-01-09T05:44:31.411Z,94.69
2023-01-09T05:48:37.891Z,95.40
2023-01-09T05:52:52.188Z,95.48
2023-01-09T05:56:57.509Z,95.81
2023-01-09T06:01:00.466Z,96.55
2023-01-09T06:05:12.183Z,96.29
2023-01-09T06:09:19.604Z,96.43
2023-01-09T06:13:34.180Z,96.91
2023-01-09T06:17:41.493Z,96.17
2023-01-09T06:21:45.505Z,96.22
2023-01-09T06:25:49.780Z,96.72
2023-01-09T06:29:52.283Z,95.68
2023-01-09T06:34:01.859Z,95.77
2023-01-09T06:38:10.625Z,95.37
2023-01-09T06:42:15.332Z,95.75
2023-01-09T06:46:24.234Z,95.12
2023-01-09T06:50:30.968Z,94.81
2023-01-09T06:54:34.075Z,94.92
2023-01-09T06:58:52.236Z,95.79
2023-01-09T07:02:57.064Z,95.61
2023-01-09T07:07:04.309Z,96.20
2023-01-09T07:11:08.619Z,96.46
2023-01-09T07:15:14.867Z,96.50
2023-01-09T07:19:26.973Z,96.99
2023-01-09T07:23:29.776Z,96.75
2023-01-09T07:27:32.929Z,96.59
2023-01-09T07:31:46.839Z,96.34
2023-01-09T07:35:51.641Z,96.56
2023-01-09T07:39:56.632Z,96.91
2023-01-09T07:44:00.878Z,96.69
2023-01-09T07:48:06.804Z,96.39
2023-01-09T07:52:13.773Z,95.92
2023-01-09T07:56:17.288Z,96.26
2023-01-09T08:00:23.833Z,97.01
2023-01-09T08:04:33.333Z,96.23
2023-01-09T08:08:49.029Z,96.76
2023-01-09T08:12:56.960Z,96.50
2023-01-09T08:17:10.013Z,96.57
2023-01-09T08:21:30.935Z,96.21
2023-01-09T08:25:34.645Z,96.40
2023-01-09T08:29:39.611Z,95.66
2023-01-09T08:34:04.977Z,96.12
2023-01-09T08:38:14.084Z,95.79
2023-01-09T08:42:41.660Z,95.29
2023-01-09T08:47:12.093Z,95.20
2023-01-09T08:51:17.371Z,94.51
2023-01-09T08:55:22.835Z,94.43
2023-01-09T08:59:46.747Z,94.95
2023-01-09T09:03:55.962Z,94.32
2023-01-09T09:08:07.735Z,94.56
2023-01-09T09:12:13.691Z,94.62
2023-01-09T09:16:38.800Z,93.78
2023-01-09T09:20:43.985Z,94.29
2023-01-09T09:24:50.036Z,93.20
2023-01-09T09:29:11.491Z,93.05
2023-01-09T09:33:20.723Z,92.73
2023-01-09T09:37:24.077Z,92.74
2023-01-09T09:42:00.616Z,93.47
2023-01-09T09:46:13.780Z,92.50
2023-01-09T09:50:39.458Z,92.95
2023-01-09T09:54:55.262Z,92.99
2023-01-09T09:59:02.513Z,92.88
2023-01-09T10:03:18.396Z,91.80
2023-01-09T10:07:26.987Z,92.75
2023-01-09T10:11:35.160Z,93.25
2023-01-09T10:15:48.805Z,93.70
2023-01-09T10:20:14.106Z,92.92
2023-01-09T10:24:30.438Z,92.88
2023-01-09T10:28:57.900Z,93.28
2023-01-09T10:33:11.890Z,94.67
2023-01-09T10:37:21.638Z,95.11
2023-01-09T10:41:29.290Z,93.74
2023-01-09T10:45:38.576Z,94.43
2023-01-09T10:49:47.820Z,94.50
2023-01-09T10:53:58.034Z,94.79
2023-01-09T10:58:05.574Z,94.80
2023-01-09T11:02:24.469Z,94.55
2023-01-09T11:06:37.951Z,95.12
2023-01-09T11:10:56.735Z,94.25
2023-01-09T11:15:32.728Z,95.05
2023-01-09T11:19:43.693Z,95.38
2023-01-09T11:23:54.632Z,95.33
2023-01-09T11:28:14.179Z,95.11
2023-01-09T11:32:25.153Z,95.77
2023-01-09T11:36:32.586Z,94.95
2023-01-09T11:40:51.225Z,95.18
2023-01-09T11:45:03.709Z,93.96
2023-01-09T11:49:24.585Z,93.33
2023-01-09T11:53:28.977Z,93.90
2023-01-09T11:57:35.104Z,93.25
2023-01-09T12:02:05.065Z,92.96
2023-01-09T12:06:21.080Z,92.81
2023-01-09T12:11:06.831Z,93.07
2023-01-09T12:15:30.447Z,93.62
2023-01-09T12:19:53.747Z,93.28
2023-01-09T12:24:13.498Z,92.91
2023-01-09T12:28:49.305Z,93.38
2023-01-09T12:33:17.036Z,92.69
2023-01-09T12:37:46.145Z,92.84
2023-01-09T12:42:15.769Z,93.19
2023-01-09T12:46:21.510Z,92.67
2023-01-09T12:50:56.042Z,92.50
2023-01-09T12:55:10.357Z,91.36
2023-01-09T12:59:31.415Z,91.46
2023-01-09T13:03:39.969Z,90.79
2023-01-09T13:07:50.048Z,91.28
2023-01-09T13:12:07.640Z,91.42
2023-01-09T13:16:15.822Z,92.24
2023-01-09T13:20:25.348Z,90.78
2023-01-09T13:24:35.120Z,91.98
2023-01-09T13:28:48.076Z,91.30
2023-01-09T13:33:02.340Z,91.88
2023-01-09T13:37:09.787Z,91.04
2023-01-09T13:41:32.420Z,90.29
2023-01-09T13:45:37.805Z,89.46
2023-01-09T13:50:02.309Z,90.41
2023-01-09T13:54:09.931Z,91.46
2023-01-09T13:58:26.388Z,91.85
2023-01-09T14:02:59.245Z,90.65
2023-01-09T14:07:22.034Z,91.06
2023-01-09T14:11:27.593Z,91.85
2023-01-09T14:15:41.172Z,91.02
2023-01-09T14:19:45.668Z,92.51
2023-01-09T14:23:55.294Z,91.56
2023-01-09T14:28:10.868Z,92.98
2023-01-09T14:32:43.947Z,93.37
2023-01-09T14:36:53.167Z,93.61
2023-01-09T14:41:01.221Z,92.90
2023-01-09T14:45:07.074Z,93.37
2023-01-09T14:49:17.850Z,92.79
2023-01-09T14:53:24.548Z,91.80
2023-01-09T14:57:30.612Z,93.64
2023-01-09T15:01:34.821Z,92.41
2023-01-09T15:05:38.341Z,92.75
2023-01-09T15:09:48.741Z,93.12
2023-01-09T15:13:57.138Z,93.22
2023-01-09T15:18:02.403Z,93.22
2023-01-09T15:22:10.819Z,93.61
2023-01-09T15:26:27.378Z,93.75
2023-01-09T15:30:45.565Z,94.06
2023-01-09T15:34:55.854Z,93.88
2023-01-09T15:39:03.062Z,93.92
2023-01-09T15:43:12.377Z,94.10
2023-01-09T15:47:18.838Z,94.20
2023-01-09T15:51:25.930Z,94.78
2023-01-09T15:55:38.672Z,93.62
2023-01-09T15:59:43.457Z,94.64
2023-01-09T16:03:48.668Z,93.17
2023-01-09T16:07:54.186Z,93.67
2023-01-09T16:12:00.545Z,93.95
2023-01-09T16:16:05.604Z,93.66
2023-01-09T16:20:16.242Z,93.73
2023-01-09T16:24:30.358Z,93.52
2023-01-09T16:28:34.360Z,93.57
2023-01-09T16:32:51.687Z,93.35
2023-01-09T16:36:56.394Z,92.02
2023-01-09T16:41:22.848Z,93.81
2023-01-09T16:45:26.716Z,92.57
2023-01-09T16:49:36.763Z,92.47
2023-01-09T16:53:40.531Z,92.54
2023-01-09T16:57:43.434Z,93.94
2023-01-09T17:01:51.391Z,93.66
2023-01-09T17:06:04.547Z,94.12
2023-01-09T17:10:11.784Z,94.61
2023-01-09T17:14:16.765Z,93.65
2023-01-09T17:18:25.601Z,94.20
2023-01-09T17:22:31.842Z,93.89
2023-01-09T17:26:58.495Z,94.34
2023-01-09T17:31:08.557Z,94.58
2023-01-09T17:35:19.775Z,94.29
2023-01-09T17:39:29.357Z,93.99
2023-01-09T17:43:38.429Z,94.35
2023-01-09T17:47:41.753Z,94.54
2023-01-09T17:51:49.362Z,94.78
2023-01-09T17:55:54.148Z,94.57
2023-01-09T17:59:57.209Z,95.51
2023-01-09T18:04:02.411Z,94.97
2023-01-09T18:08:14.892Z,94.86
2023-01-09T18:12:21.201Z,94.65
2023-01-09T18:16:35.719Z,94.51
2023-01-09T18:20:44.631Z,94.25
2023-01-09T18:24:52.594Z,94.69
2023-01-09T18:29:05.755Z,94.35
2023-01-09T18:33:20.236Z,95.21
2023-01-09T18:37:38.679Z,95.82
2023-01-09T18:41:44.569Z,95.78
2023-01-09T18:45:48.835Z,95.73
2023-01-09T18:50:06.656Z,95.53
2023-01-09T18:54:16.925Z,95.73
2023-01-09T18:58:27.048Z,95.98
2023-01-09T19:02:31.947Z,95.33
2023-01-09T19:06:36.894Z,95.13
2023-01-09T19:10:42.394Z,95.40
2023-01-09T19:14:48.593Z,95.21
2023-01-09T19:18:57.326Z,95.33
2023-01-09T19:23:03.273Z,95.04
2023-01-09T19:27:14.405Z,95.13
2023-01-09T19:31:20.610Z,95.51
2023-01-09T19:35:27.047Z,94.86
2023-01-09T19:39:34.066Z,94.05
2023-01-09T19:43:41.900Z,94.47
2023-01-09T19:47:51.308Z,93.97
2023-01-09T19:52:01.463Z,92.68
2023-01-09T19:56:15.466Z,93.77
2023-01-09T20:00:30.416Z,93.93
2023-01-09T20:04:33.966Z,94.63
2023-01-09T20:08:45.544Z,94.57
2023-01-09T20:12:52.270Z,94.31
2023-01-09T20:17:00.552Z,94.73
2023-01-09T20:21:05.041Z,94.68
2023-01-09T20:25:14.480Z,95.15
2023-01-09T20:29:18.998Z,95.04
2023-01-09T20:33:25.020Z,95.49
2023-01-09T20:37:35.257Z,95.22
2023-01-09T20:41:43.241Z,95.33
2023-01-09T20:45:48.295Z,95.01
2023-01-09T20:50:01.904Z,94.98
2023-01-09T20:54:06.518Z,95.41
2023-01-09T20:58:22.006Z,94.52
2023-01-09T21:02:27.510Z,94.97
2023-01-09T21:06:35.393Z,94.99
2023-01-09T21:10:39.717Z,94.96
2023-01-09T21:14:52.239Z,94.86
2023-01-09T21:18:58.471Z,95.21
2023-01-09T21:23:09.769Z,95.54
2023-01-09T21:27:12.822Z,94.52
2023-01-09T21:31:20.358Z,93.90
2023-01-09T21:35:25.072Z,94.29
2023-01-09T21:39:35.334Z,93.08
2023-01-09T21:43:58.118Z,93.74
2023-01-09T21:48:06.110Z,93.08
2023-01-09T21:52:23.632Z,94.62
2023-01-09T21:56:28.816Z,94.57
2023-01-09T22:00:47.378Z,94.01
2023-01-09T22:04:53.799Z,92.33
2023-01-09T22:08:58.540Z,93.56
2023-01-09T22:13:19.507Z,94.53
2023-01-09T22:17:25.584Z,94.62
2023-01-09T22:21:43.732Z,94.78
2023-01-09T22:25:47.773Z,91.39
2023-01-09T22:29:51.283Z,94.32
2023-01-09T22:33:59.186Z,94.78
2023-01-09T22:38:14.752Z,96.57
2023-01-09T22:42:18.930Z,95.00
2023-01-09T22:46:22.963Z,95.47
2023-01-09T22:50:27.888Z,94.78
2023-01-09T22:54:35.995Z,94.78
2023-01-09T22:58:38.977Z,96.05
2023-01-09T23:02:49.216Z,95.21
2023-01-09T23:06:55.273Z,95.43
2023-01-09T23:11:00.900Z,95.98
2023-01-09T23:15:04.364Z,95.29
2023-01-09T23:19:10.073Z,96.27
2023-01-09T23:23:14.775Z,96.55
2023-01-09T23:27:26.332Z,96.51
2023-01-09T23:31:30.339Z,95.66
2023-01-09T23:35:34.855Z,96.12
2023-01-09T23:39:38.281Z,96.29
2023-01-09T23:43:45.039Z,95.79
2023-01-09T23:47:47.903Z,96.26
2023-01-09T23:51:56.738Z,96.57
2023-01-09T23:56:03.943Z,96.23
